»·PEaware :: UAL245 KSAN-KLAS

UAL245 :: KSAN-KLAS

FLIGHT INFORMATION

Flight Status: Arrived
Operator:
United Airlines
More flights by this operator :: More flights under this callsign
Pilot: Vasiliy S. (4053)
Aircraft: AIRBUS A319
(A319)
More flights by this aircraft type
Origin: KSAN San Diego Intl-Lindbergh
United States
Destination: KLAS McCarran Intl
United States
More flights between these airports :: More routes between these airports
Route: PADRZ2 CHKNN SEBBY YELAH MISEN KEPEC6
File this flight plan on PilotEdge
Remarks: RMK / SIMBRIEF
Altitude:
(Current/Filed)
37,000ft
Speed:
(Current/Filed)
455kts
Departed: 20-Aug-19 08:50 PM
Arrived: 20-Aug-19 09:42 PM
Distance/Time
Traveled:
225nm/0:52
Distance/Time
To Go:
Arrived

Flight Plot

Page will automatically refresh every two minutes.

Flight plan parsing failed; only flown route is shown


Map Options




Map Legend


Flown Route
Filed Route
Departure Airport
Arrival Airport
Navaid (VOR, NDB)
Fix

Horizontal Profiles

Position Reports

Time Latitude Longitude Heading Altitude Ground
Speed
20-Aug-19 19:57 32.733772 -117.203553 263 29ft 0kts
20-Aug-19 19:58 32.733772 -117.203553 263 29ft 0kts
20-Aug-19 19:59 32.733772 -117.203553 263 29ft 0kts
20-Aug-19 20:00 32.733772 -117.203553 263 29ft 0kts
20-Aug-19 20:01 32.733772 -117.203553 263 29ft 0kts
20-Aug-19 20:02 32.733772 -117.203553 263 29ft 0kts
20-Aug-19 20:03 32.733772 -117.203553 263 29ft 0kts
20-Aug-19 20:04 32.733772 -117.203553 263 29ft 0kts
20-Aug-19 20:05 32.733772 -117.203553 263 29ft 0kts
20-Aug-19 20:06 32.733772 -117.203553 263 29ft 0kts
20-Aug-19 20:07 32.733772 -117.203553 263 29ft 0kts
20-Aug-19 20:08 32.733772 -117.203553 263 29ft 0kts
20-Aug-19 20:09 32.733772 -117.203553 263 29ft 0kts
20-Aug-19 20:10 32.733772 -117.203553 263 29ft 0kts
20-Aug-19 20:11 32.733772 -117.203553 263 29ft 0kts
20-Aug-19 20:12 32.733772 -117.203553 263 29ft 0kts
20-Aug-19 20:13 32.733772 -117.203553 263 29ft 0kts
20-Aug-19 20:14 32.733772 -117.203553 263 29ft 0kts
20-Aug-19 20:15 32.733772 -117.203553 263 29ft 0kts
20-Aug-19 20:16 32.733772 -117.203553 263 29ft 0kts
20-Aug-19 20:17 32.733772 -117.203553 263 29ft 0kts
20-Aug-19 20:18 32.733772 -117.203553 263 29ft 0kts
20-Aug-19 20:19 32.733772 -117.203553 263 29ft 0kts
20-Aug-19 20:20 32.733772 -117.203553 263 29ft 0kts
20-Aug-19 20:21 32.733772 -117.203553 263 29ft 0kts
20-Aug-19 20:22 32.733772 -117.203553 263 29ft 0kts
20-Aug-19 20:23 32.733772 -117.203553 263 29ft 0kts
20-Aug-19 20:24 32.733772 -117.203553 263 29ft 0kts
20-Aug-19 20:25 32.733772 -117.203553 263 29ft 0kts
20-Aug-19 20:26 32.733787 -117.203400 260 29ft 2kts
20-Aug-19 20:27 32.734062 -117.202748 199 29ft 2kts
20-Aug-19 20:28 32.734229 -117.202690 195 29ft 0kts
20-Aug-19 20:29 32.734229 -117.202690 195 29ft 0kts
20-Aug-19 20:30 32.734229 -117.202690 195 29ft 0kts
20-Aug-19 20:31 32.734228 -117.202690 195 29ft 0kts
20-Aug-19 20:32 32.734227 -117.202691 195 29ft 0kts
20-Aug-19 20:33 32.734226 -117.202691 195 29ft 0kts
20-Aug-19 20:34 32.734225 -117.202691 195 29ft 0kts
20-Aug-19 20:35 32.734223 -117.202692 195 29ft 0kts
20-Aug-19 20:36 32.734065 -117.202743 195 29ft 0kts
20-Aug-19 20:37 32.734202 -117.202466 349 29ft 6kts
20-Aug-19 20:38 32.735320 -117.201086 109 29ft 15kts
20-Aug-19 20:39 32.733771 -117.194754 105 29ft 21kts
20-Aug-19 20:40 32.731876 -117.186897 105 29ft 25kts
20-Aug-19 20:41 32.730539 -117.181403 108 29ft 10kts
20-Aug-19 20:42 32.729696 -117.177950 105 29ft 0kts
20-Aug-19 20:43 32.729695 -117.177945 105 29ft 0kts
20-Aug-19 20:44 32.729694 -117.177943 105 29ft 0kts
20-Aug-19 20:45 32.729609 -117.177569 103 29ft 1kts
20-Aug-19 20:46 32.729575 -117.177404 104 29ft 0kts
20-Aug-19 20:47 32.729477 -117.176736 88 29ft 7kts
20-Aug-19 20:48 32.730379 -117.176528 286 29ft 0kts
20-Aug-19 20:49 32.734384 -117.193197 287 210ft 155kts
20-Aug-19 20:50 32.755729 -117.237193 302 2952ft 158kts
20-Aug-19 20:51 32.782144 -117.286280 304 4409ft 198kts
20-Aug-19 20:52 32.819342 -117.348974 308 6085ft 262kts
20-Aug-19 20:53 32.866949 -117.422451 306 8627ft 291kts
20-Aug-19 20:54 32.917628 -117.501712 306 10783ft 325kts
20-Aug-19 20:55 32.977142 -117.594280 306 12232ft 371kts
20-Aug-19 20:56 33.040649 -117.693550 306 14591ft 381kts
20-Aug-19 20:57 33.116835 -117.784181 318 16788ft 393kts
20-Aug-19 20:58 33.201834 -117.868503 321 18856ft 403kts
20-Aug-19 20:59 33.294838 -117.946038 322 20734ft 413kts
20-Aug-19 21:00 33.389687 -118.025728 321 22432ft 421kts
20-Aug-19 21:01 33.486731 -118.107132 321 23939ft 430kts
20-Aug-19 21:02 33.593093 -118.173607 350 25318ft 453kts
20-Aug-19 21:03 33.710608 -118.112500 34 26556ft 485kts
20-Aug-19 21:04 33.819604 -118.014841 31 27714ft 492kts
20-Aug-19 21:05 33.931167 -117.917038 32 28848ft 497kts
20-Aug-19 21:06 34.042005 -117.819223 31 30264ft 494kts
20-Aug-19 21:07 34.141588 -117.703057 47 31436ft 507kts
20-Aug-19 21:08 34.230396 -117.570666 45 32592ft 507kts
20-Aug-19 21:09 34.320630 -117.438869 46 33683ft 509kts
20-Aug-19 21:10 34.410579 -117.306121 46 34795ft 508kts
20-Aug-19 21:11 34.500110 -117.173529 47 35853ft 507kts
20-Aug-19 21:12 34.589336 -117.041105 47 36793ft 506kts
20-Aug-19 21:13 34.678063 -116.908736 47 37057ft 505kts
20-Aug-19 21:14 34.766505 -116.776341 47 36857ft 504kts
20-Aug-19 21:15 34.855506 -116.644958 41 35399ft 500kts
20-Aug-19 21:16 34.963601 -116.539097 33 32993ft 498kts
20-Aug-19 21:17 35.072036 -116.433108 35 30259ft 503kts
20-Aug-19 21:18 35.174258 -116.314531 44 27192ft 510kts
20-Aug-19 21:19 35.272379 -116.190590 44 24143ft 503kts
20-Aug-19 21:20 35.368523 -116.069603 45 21119ft 486kts
20-Aug-19 21:21 35.460128 -115.953797 45 18205ft 459kts
20-Aug-19 21:22 35.546497 -115.844237 45 15445ft 434kts
20-Aug-19 21:23 35.627978 -115.740530 45 13067ft 403kts
20-Aug-19 21:24 35.698835 -115.650123 45 12910ft 332kts
20-Aug-19 21:25 35.756658 -115.580684 28 12894ft 318kts
20-Aug-19 21:26 35.843241 -115.570485 359 12928ft 315kts
20-Aug-19 21:27 35.930644 -115.565765 1 12933ft 315kts
20-Aug-19 21:28 35.993367 -115.502646 71 12281ft 318kts
20-Aug-19 21:29 36.013093 -115.430433 69 11446ft 305kts
20-Aug-19 21:30 36.029283 -115.334950 98 10351ft 286kts
20-Aug-19 21:31 36.020837 -115.238429 96 9161ft 277kts
20-Aug-19 21:33 36.014416 -115.145186 96 8669ft 260kts
20-Aug-19 21:34 36.008668 -115.059699 96 7612ft 246kts
20-Aug-19 21:35 36.003790 -114.976299 96 6312ft 240kts
20-Aug-19 21:36 36.024163 -114.908151 18 5232ft 230kts
20-Aug-19 21:37 36.072057 -114.939344 284 5043ft 199kts
20-Aug-19 21:38 36.073754 -115.002314 268 4161ft 163kts
20-Aug-19 21:39 36.073742 -115.053620 268 3369ft 147kts
20-Aug-19 21:40 36.073698 -115.103129 268 2606ft 142kts
20-Aug-19 21:41 36.073650 -115.142842 269 2195ft 48kts
20-Aug-19 21:42 36.076078 -115.151753 333 2195ft 23kts
20-Aug-19 21:43 36.082824 -115.155692 335 2195ft 25kts

Navigation Log

Ident Type
Flight plan parsing failed, navigation log unavailable